Time,TemperatureF,DewpointF,PressureIn,WindDirection,WindDirectionDegrees,WindSpeedMPH,WindSpeedGustMPH,Humidity,HourlyPrecipIn,Conditions,Clouds,dailyrainin,SolarRadiationWatts/m^2,SoftwareType,DateUTC
2013-08-14 00:00:00,53.0,50.0,-100.00,NW,315,2.0,-999.0,90,-99.99,,,-99.99,0.000000,,2013-08-14 04:00:00,
2013-08-14 00:42:00,53.0,50.0,-100.00,NW,315,2.0,-999.0,90,-99.99,,,-99.99,0.000000,,2013-08-14 04:42:00,
2013-08-14 00:52:00,53.0,50.0,-100.00,NW,315,2.0,-999.0,90,-99.99,,,-99.99,0.000000,,2013-08-14 04:52:00,
2013-08-14 03:00:00,51.0,45.0,-100.00,West,270,3.0,-999.0,82,-99.99,,,-99.99,0.000000,,2013-08-14 07:00:00,
2013-08-14 03:42:00,51.0,45.0,-100.00,West,270,3.0,-999.0,82,-99.99,,,-99.99,0.000000,,2013-08-14 07:42:00,
2013-08-14 03:52:00,51.0,45.0,-100.00,West,270,3.0,-999.0,82,-99.99,,,-99.99,0.000000,,2013-08-14 07:52:00,
2013-08-14 05:00:00,45.0,45.0,-100.00,NNW,337,0.0,-999.0,96,-99.99,,,-99.99,0.000000,,2013-08-14 09:00:00,
2013-08-14 05:43:00,45.0,45.0,-100.00,NNW,337,0.0,-999.0,96,-99.99,,,-99.99,0.000000,,2013-08-14 09:43:00,
2013-08-14 05:53:00,45.0,45.0,-100.00,NNW,337,0.0,-999.0,96,-99.99,,,-99.99,0.000000,,2013-08-14 09:53:00,
2013-08-14 06:00:00,44.0,44.0,-100.00,West,270,0.0,-999.0,100,-99.99,,,-99.99,0.000000,,2013-08-14 10:00:00,
2013-08-14 06:43:00,44.0,44.0,-100.00,West,270,0.0,-999.0,100,-99.99,,,-99.99,0.000000,,2013-08-14 10:43:00,
2013-08-14 06:52:00,44.0,44.0,-100.00,West,270,0.0,-999.0,100,-99.99,,,-99.99,0.000000,,2013-08-14 10:52:00,
2013-08-14 07:00:00,42.0,42.0,-100.00,West,270,0.0,-999.0,102,-99.99,,,-99.99,1.160000,,2013-08-14 11:00:00,
2013-08-14 07:42:00,42.0,42.0,-100.00,West,270,0.0,-999.0,102,-99.99,,,-99.99,1.160000,,2013-08-14 11:42:00,
2013-08-14 07:52:00,42.0,42.0,-100.00,West,270,0.0,-999.0,102,-99.99,,,-99.99,1.160000,,2013-08-14 11:52:00,
2013-08-14 08:00:00,44.0,44.0,-100.00,West,270,0.0,-999.0,102,-99.99,,,-99.99,77.720001,,2013-08-14 12:00:00,
2013-08-14 08:42:00,44.0,44.0,-100.00,West,270,0.0,-999.0,102,-99.99,,,-99.99,77.720001,,2013-08-14 12:42:00,
2013-08-14 08:52:00,44.0,44.0,-100.00,West,270,0.0,-999.0,102,-99.99,,,-99.99,77.720001,,2013-08-14 12:52:00,
2013-08-14 09:00:00,55.0,51.0,-100.00,East,90,2.0,-999.0,85,-99.99,,,-99.99,251.720001,,2013-08-14 13:00:00,
2013-08-14 09:42:00,55.0,51.0,-100.00,East,90,2.0,-999.0,85,-99.99,,,-99.99,251.720001,,2013-08-14 13:42:00,
2013-08-14 09:52:00,55.0,51.0,-100.00,East,90,2.0,-999.0,85,-99.99,,,-99.99,251.720001,,2013-08-14 13:52:00,
2013-08-14 10:00:00,61.0,50.0,-100.00,ESE,112,3.0,-999.0,69,-99.99,,,-99.99,431.519989,,2013-08-14 14:00:00,
2013-08-14 10:42:00,61.0,50.0,-100.00,ESE,112,3.0,-999.0,69,-99.99,,,-99.99,431.519989,,2013-08-14 14:42:00,
2013-08-14 10:52:00,61.0,50.0,-100.00,ESE,112,3.0,-999.0,69,-99.99,,,-99.99,431.519989,,2013-08-14 14:52:00,
2013-08-14 11:00:00,64.0,50.0,-100.00,SSW,202,5.0,-999.0,61,-99.99,,,-99.99,599.719971,,2013-08-14 15:00:00,
2013-08-14 11:44:00,64.0,50.0,-100.00,SSW,202,5.0,-999.0,61,-99.99,,,-99.99,599.719971,,2013-08-14 15:44:00,
2013-08-14 11:57:00,64.0,50.0,-100.00,SSW,202,5.0,-999.0,61,-99.99,,,-99.99,599.719971,,2013-08-14 15:57:00,
2013-08-14 12:00:00,65.0,50.0,-100.00,SSW,202,5.0,-999.0,56,-99.99,,,-99.99,671.640015,,2013-08-14 16:00:00,
2013-08-14 12:43:00,65.0,50.0,-100.00,SSW,202,5.0,-999.0,56,-99.99,,,-99.99,671.640015,,2013-08-14 16:43:00,
2013-08-14 14:00:00,68.0,49.0,-100.00,SSW,202,4.0,-999.0,50,-99.99,,,-99.99,794.599976,,2013-08-14 18:00:00,
2013-08-14 15:00:00,68.0,49.0,-100.00,West,270,4.0,-999.0,50,-99.99,,,-99.99,574.200012,,2013-08-14 19:00:00,
2013-08-14 15:42:00,68.0,49.0,-100.00,West,270,4.0,-999.0,50,-99.99,,,-99.99,574.200012,,2013-08-14 19:42:00,
2013-08-14 16:00:00,68.0,48.0,-100.00,NW,315,7.0,-999.0,48,-99.99,,,-99.99,798.080017,,2013-08-14 20:00:00,
2013-08-14 16:49:00,68.0,48.0,-100.00,NW,315,7.0,-999.0,48,-99.99,,,-99.99,798.080017,,2013-08-14 20:49:00,
2013-08-14 17:00:00,67.0,48.0,-100.00,WNW,292,9.0,-999.0,49,-99.99,,,-99.99,693.679993,,2013-08-14 21:00:00,
2013-08-14 17:45:00,67.0,48.0,-100.00,WNW,292,9.0,-999.0,49,-99.99,,,-99.99,693.679993,,2013-08-14 21:45:00,
2013-08-14 17:55:00,67.0,48.0,-100.00,WNW,292,9.0,-999.0,49,-99.99,,,-99.99,693.679993,,2013-08-14 21:55:00,
2013-08-14 18:00:00,67.0,49.0,-100.00,NW,315,8.0,-999.0,51,-99.99,,,-99.99,541.719971,,2013-08-14 22:00:00,
2013-08-14 18:44:00,67.0,49.0,-100.00,NW,315,8.0,-999.0,51,-99.99,,,-99.99,541.719971,,2013-08-14 22:44:00,
2013-08-14 18:55:00,67.0,49.0,-100.00,NW,315,8.0,-999.0,51,-99.99,,,-99.99,541.719971,,2013-08-14 22:55:00,
2013-08-14 19:00:00,66.0,51.0,-100.00,NW,315,8.0,-999.0,59,-99.99,,,-99.99,364.239990,,2013-08-14 23:00:00,
2013-08-14 19:46:00,66.0,51.0,-100.00,NW,315,8.0,-999.0,59,-99.99,,,-99.99,364.239990,,2013-08-14 23:46:00,
2013-08-14 19:56:00,66.0,51.0,-100.00,NW,315,8.0,-999.0,59,-99.99,,,-99.99,364.239990,,2013-08-14 23:56:00,
2013-08-14 20:00:00,65.0,52.0,-100.00,NW,315,5.0,-999.0,62,-99.99,,,-99.99,183.279999,,2013-08-15 00:00:00,
2013-08-14 20:43:00,65.0,52.0,-100.00,NW,315,5.0,-999.0,62,-99.99,,,-99.99,183.279999,,2013-08-15 00:43:00,
2013-08-14 20:52:00,65.0,52.0,-100.00,NW,315,5.0,-999.0,62,-99.99,,,-99.99,183.279999,,2013-08-15 00:52:00,
2013-08-14 21:00:00,61.0,53.0,-100.00,NW,315,1.0,-999.0,74,-99.99,,,-99.99,27.840000,,2013-08-15 01:00:00,
2013-08-14 21:42:00,61.0,53.0,-100.00,NW,315,1.0,-999.0,74,-99.99,,,-99.99,27.840000,,2013-08-15 01:42:00,
2013-08-14 21:52:00,61.0,53.0,-100.00,NW,315,1.0,-999.0,74,-99.99,,,-99.99,27.840000,,2013-08-15 01:52:00,
2013-08-14 22:00:00,53.0,52.0,-100.00,West,270,0.0,-999.0,96,-99.99,,,-99.99,0.000000,,2013-08-15 02:00:00,
2013-08-14 22:52:00,53.0,52.0,-100.00,West,270,0.0,-999.0,96,-99.99,,,-99.99,0.000000,,2013-08-15 02:52:00,